sensor_id;sensor_type;location;lat;lon;timestamp;pressure;altitude;pressure_sealevel;temperature;humidity
79411;BME280;69635;50.964;6.948;2023-07-13T00:01:46;100979.31;;;17.73;52.27
79411;BME280;69635;50.964;6.948;2023-07-13T00:04:15;100993.59;;;17.72;53.05
79411;BME280;69635;50.964;6.948;2023-07-13T00:06:41;101013.47;;;17.96;52.16
79411;BME280;69635;50.964;6.948;2023-07-13T00:09:12;101002.16;;;17.85;52.17
79411;BME280;69635;50.964;6.948;2023-07-13T00:11:38;101011.34;;;17.76;52.90
79411;BME280;69635;50.964;6.948;2023-07-13T00:14:04;101004.00;;;17.83;52.90
79411;BME280;69635;50.964;6.948;2023-07-13T00:16:29;101009.34;;;17.83;52.82
79411;BME280;69635;50.964;6.948;2023-07-13T00:18:55;101021.63;;;17.58;53.88
79411;BME280;69635;50.964;6.948;2023-07-13T00:21:25;101013.88;;;17.47;54.30
79411;BME280;69635;50.964;6.948;2023-07-13T00:23:51;100997.09;;;17.41;54.20
79411;BME280;69635;50.964;6.948;2023-07-13T00:26:16;101001.41;;;17.46;54.09
79411;BME280;69635;50.964;6.948;2023-07-13T00:28:42;100988.56;;;17.25;54.51
79411;BME280;69635;50.964;6.948;2023-07-13T00:31:10;100988.97;;;17.44;54.29
79411;BME280;69635;50.964;6.948;2023-07-13T00:33:36;100986.88;;;17.21;54.87
79411;BME280;69635;50.964;6.948;2023-07-13T00:36:02;100997.22;;;17.35;54.78
79411;BME280;69635;50.964;6.948;2023-07-13T00:38:28;100984.47;;;17.46;54.34
79411;BME280;69635;50.964;6.948;2023-07-13T00:40:55;101027.47;;;17.37;55.02
79411;BME280;69635;50.964;6.948;2023-07-13T00:43:22;101035.59;;;17.34;55.38
79411;BME280;69635;50.964;6.948;2023-07-13T00:48:19;101016.16;;;17.27;55.47
79411;BME280;69635;50.964;6.948;2023-07-13T00:50:48;101016.38;;;17.18;55.93
79411;BME280;69635;50.964;6.948;2023-07-13T00:53:15;100996.28;;;17.00;55.92
79411;BME280;69635;50.964;6.948;2023-07-13T00:55:42;100994.19;;;17.15;55.61
79411;BME280;69635;50.964;6.948;2023-07-13T00:58:07;100989.03;;;17.07;55.82
79411;BME280;69635;50.964;6.948;2023-07-13T01:00:36;101030.72;;;17.14;56.06
79411;BME280;69635;50.964;6.948;2023-07-13T01:03:04;101014.34;;;17.28;55.74
79411;BME280;69635;50.964;6.948;2023-07-13T01:05:32;101010.31;;;17.45;54.90
79411;BME280;69635;50.964;6.948;2023-07-13T01:08:23;101013.53;;;17.24;55.99
79411;BME280;69635;50.964;6.948;2023-07-13T01:11:01;101003.00;;;17.18;55.99
79411;BME280;69635;50.964;6.948;2023-07-13T01:23:44;100998.41;;;16.86;57.32
79411;BME280;69635;50.964;6.948;2023-07-13T01:29:18;100968.16;;;16.46;57.88
79411;BME280;69635;50.964;6.948;2023-07-13T01:32:12;101019.75;;;16.89;57.77
79411;BME280;69635;50.964;6.948;2023-07-13T01:35:01;100973.75;;;16.34;58.40
79411;BME280;69635;50.964;6.948;2023-07-13T01:37:39;100983.63;;;16.29;58.87
79411;BME280;69635;50.964;6.948;2023-07-13T01:40:19;101021.28;;;16.60;58.63
79411;BME280;69635;50.964;6.948;2023-07-13T01:42:59;101020.00;;;16.79;58.03
79411;BME280;69635;50.964;6.948;2023-07-13T01:45:59;101026.44;;;16.69;58.51
79411;BME280;69635;50.964;6.948;2023-07-13T01:48:24;101025.00;;;16.53;59.02
79411;BME280;69635;50.964;6.948;2023-07-13T01:50:56;101008.78;;;16.62;58.75
79411;BME280;69635;50.964;6.948;2023-07-13T01:53:34;101010.72;;;16.95;57.84
79411;BME280;69635;50.964;6.948;2023-07-13T01:56:25;100999.47;;;16.79;58.02
79411;BME280;69635;50.964;6.948;2023-07-13T01:59:10;101015.19;;;16.93;58.16
79411;BME280;69635;50.964;6.948;2023-07-13T02:01:47;101018.28;;;16.75;58.79
79411;BME280;69635;50.964;6.948;2023-07-13T02:07:34;100997.41;;;16.54;59.01
79411;BME280;69635;50.964;6.948;2023-07-13T02:10:02;101035.28;;;17.11;58.10
79411;BME280;69635;50.964;6.948;2023-07-13T02:12:33;100999.28;;;16.87;58.30
79411;BME280;69635;50.964;6.948;2023-07-13T02:15:07;100980.97;;;16.70;58.50
79411;BME280;69635;50.964;6.948;2023-07-13T02:17:57;101019.94;;;16.80;58.85
79411;BME280;69635;50.964;6.948;2023-07-13T02:20:49;101028.03;;;16.76;59.02
79411;BME280;69635;50.964;6.948;2023-07-13T02:23:19;101021.34;;;16.57;59.34
79411;BME280;69635;50.964;6.948;2023-07-13T02:25:58;101002.31;;;16.29;59.69
79411;BME280;69635;50.964;6.948;2023-07-13T02:28:24;101014.84;;;16.70;58.87
79411;BME280;69635;50.964;6.948;2023-07-13T02:30:53;101022.41;;;16.50;59.35
79411;BME280;69635;50.964;6.948;2023-07-13T02:33:21;100993.69;;;16.18;60.22
79411;BME280;69635;50.964;6.948;2023-07-13T02:36:14;100995.31;;;16.25;60.03
79411;BME280;69635;50.964;6.948;2023-07-13T02:38:50;101038.88;;;16.27;60.54
79411;BME280;69635;50.964;6.948;2023-07-13T02:41:19;101002.78;;;16.07;60.76
79411;BME280;69635;50.964;6.948;2023-07-13T02:43:54;101004.41;;;16.15;60.75
79411;BME280;69635;50.964;6.948;2023-07-13T02:46:41;101031.91;;;16.19;60.89
79411;BME280;69635;50.964;6.948;2023-07-13T02:49:09;101039.97;;;16.16;61.04
79411;BME280;69635;50.964;6.948;2023-07-13T02:51:44;100998.13;;;15.73;61.38
79411;BME280;69635;50.964;6.948;2023-07-13T02:54:13;101009.81;;;15.65;61.44
79411;BME280;69635;50.964;6.948;2023-07-13T02:56:45;101003.78;;;15.55;62.01
79411;BME280;69635;50.964;6.948;2023-07-13T02:59:27;101015.84;;;15.76;61.97
79411;BME280;69635;50.964;6.948;2023-07-13T03:01:58;101041.50;;;15.83;61.70
79411;BME280;69635;50.964;6.948;2023-07-13T03:04:39;101017.84;;;15.63;61.90
79411;BME280;69635;50.964;6.948;2023-07-13T03:07:27;101017.13;;;15.55;62.09
79411;BME280;69635;50.964;6.948;2023-07-13T03:10:02;101013.63;;;15.52;62.37
79411;BME280;69635;50.964;6.948;2023-07-13T03:12:43;101019.63;;;15.64;61.84
79411;BME280;69635;50.964;6.948;2023-07-13T03:15:12;101025.13;;;15.55;61.65
79411;BME280;69635;50.964;6.948;2023-07-13T03:17:59;101011.81;;;15.54;61.61
79411;BME280;69635;50.964;6.948;2023-07-13T03:23:23;101061.16;;;15.79;61.72
79411;BME280;69635;50.964;6.948;2023-07-13T03:25:50;101056.81;;;15.72;61.85
79411;BME280;69635;50.964;6.948;2023-07-13T03:28:15;101057.53;;;15.81;61.76
79411;BME280;69635;50.964;6.948;2023-07-13T03:30:41;101055.94;;;15.71;61.98
79411;BME280;69635;50.964;6.948;2023-07-13T03:33:06;101063.66;;;15.86;61.14
79411;BME280;69635;50.964;6.948;2023-07-13T03:35:33;101064.78;;;15.75;61.91
79411;BME280;69635;50.964;6.948;2023-07-13T03:37:59;101063.06;;;15.71;62.13
79411;BME280;69635;50.964;6.948;2023-07-13T03:40:26;101071.91;;;15.73;61.91
79411;BME280;69635;50.964;6.948;2023-07-13T03:42:52;101066.47;;;15.77;61.87
79411;BME280;69635;50.964;6.948;2023-07-13T03:45:18;101077.13;;;15.80;61.67
79411;BME280;69635;50.964;6.948;2023-07-13T03:47:44;101083.59;;;15.66;62.15
79411;BME280;69635;50.964;6.948;2023-07-13T03:50:09;101081.75;;;15.69;62.32
79411;BME280;69635;50.964;6.948;2023-07-13T03:52:35;101083.53;;;15.69;62.27
79411;BME280;69635;50.964;6.948;2023-07-13T03:55:00;101086.28;;;15.64;62.08
79411;BME280;69635;50.964;6.948;2023-07-13T03:57:26;101090.81;;;15.61;62.31
79411;BME280;69635;50.964;6.948;2023-07-13T03:59:51;101095.94;;;15.73;62.20
79411;BME280;69635;50.964;6.948;2023-07-13T04:02:17;101090.47;;;15.80;62.21
79411;BME280;69635;50.964;6.948;2023-07-13T04:04:43;101088.72;;;15.78;61.92
79411;BME280;69635;50.964;6.948;2023-07-13T04:07:08;101089.81;;;15.66;62.60
79411;BME280;69635;50.964;6.948;2023-07-13T04:09:34;101088.81;;;15.73;62.37
79411;BME280;69635;50.964;6.948;2023-07-13T04:11:59;101087.97;;;15.70;62.84
79411;BME280;69635;50.964;6.948;2023-07-13T04:14:25;101094.31;;;15.61;63.14
79411;BME280;69635;50.964;6.948;2023-07-13T04:16:50;101098.75;;;15.64;62.99
79411;BME280;69635;50.964;6.948;2023-07-13T04:19:16;101097.00;;;15.63;63.37
79411;BME280;69635;50.964;6.948;2023-07-13T04:21:42;101094.00;;;15.82;62.66
79411;BME280;69635;50.964;6.948;2023-07-13T04:24:07;101096.00;;;15.67;63.33
79411;BME280;69635;50.964;6.948;2023-07-13T04:26:33;101108.25;;;15.80;62.91
79411;BME280;69635;50.964;6.948;2023-07-13T04:29:01;101096.63;;;15.84;62.83
79411;BME280;69635;50.964;6.948;2023-07-13T04:31:29;101102.00;;;15.81;62.97
79411;BME280;69635;50.964;6.948;2023-07-13T04:33:54;101095.84;;;15.79;63.13
79411;BME280;69635;50.964;6.948;2023-07-13T04:36:22;101093.81;;;15.90;62.72
79411;BME280;69635;50.964;6.948;2023-07-13T04:38:48;101099.91;;;16.00;62.87
79411;BME280;69635;50.964;6.948;2023-07-13T04:41:15;101092.97;;;15.88;63.11
79411;BME280;69635;50.964;6.948;2023-07-13T04:43:43;101099.81;;;16.03;63.02
79411;BME280;69635;50.964;6.948;2023-07-13T04:46:11;101102.41;;;16.09;63.08
79411;BME280;69635;50.964;6.948;2023-07-13T04:48:37;101103.94;;;16.22;62.85
79411;BME280;69635;50.964;6.948;2023-07-13T04:51:03;101101.25;;;16.23;62.95
79411;BME280;69635;50.964;6.948;2023-07-13T04:53:30;101096.78;;;16.24;62.59
79411;BME280;69635;50.964;6.948;2023-07-13T04:55:56;101104.69;;;16.28;63.03
79411;BME280;69635;50.964;6.948;2023-07-13T04:58:22;101097.31;;;16.41;62.70
79411;BME280;69635;50.964;6.948;2023-07-13T05:00:48;101089.16;;;16.50;62.75
79411;BME280;69635;50.964;6.948;2023-07-13T05:03:14;101104.13;;;16.58;62.54
79411;BME280;69635;50.964;6.948;2023-07-13T05:05:39;101111.31;;;16.55;62.76
79411;BME280;69635;50.964;6.948;2023-07-13T05:08:05;101102.75;;;16.82;62.08
79411;BME280;69635;50.964;6.948;2023-07-13T05:10:30;101110.78;;;16.80;62.21
79411;BME280;69635;50.964;6.948;2023-07-13T05:12:55;101106.41;;;16.76;62.69
79411;BME280;69635;50.964;6.948;2023-07-13T05:15:22;101109.97;;;16.77;62.49
79411;BME280;69635;50.964;6.948;2023-07-13T05:17:48;101104.91;;;17.05;61.92
79411;BME280;69635;50.964;6.948;2023-07-13T05:20:15;101107.66;;;17.02;61.76
79411;BME280;69635;50.964;6.948;2023-07-13T05:22:41;101106.72;;;17.02;62.06
79411;BME280;69635;50.964;6.948;2023-07-13T05:25:07;101114.50;;;17.15;61.77
79411;BME280;69635;50.964;6.948;2023-07-13T05:27:33;101107.50;;;17.09;62.10
79411;BME280;69635;50.964;6.948;2023-07-13T05:29:59;101117.38;;;17.06;62.14
79411;BME280;69635;50.964;6.948;2023-07-13T05:32:25;101123.13;;;17.26;61.89
79411;BME280;69635;50.964;6.948;2023-07-13T05:34:50;101126.38;;;17.40;61.27
79411;BME280;69635;50.964;6.948;2023-07-13T05:37:16;101120.28;;;17.33;61.57
79411;BME280;69635;50.964;6.948;2023-07-13T05:39:41;101126.47;;;17.35;61.51
79411;BME280;69635;50.964;6.948;2023-07-13T05:42:06;101126.00;;;17.56;61.35
79411;BME280;69635;50.964;6.948;2023-07-13T05:44:32;101134.91;;;18.26;59.48
79411;BME280;69635;50.964;6.948;2023-07-13T05:46:57;101133.13;;;19.49;55.33
79411;BME280;69635;50.964;6.948;2023-07-13T05:49:23;101135.25;;;19.93;53.42
79411;BME280;69635;50.964;6.948;2023-07-13T05:51:49;101138.94;;;19.04;55.89
79411;BME280;69635;50.964;6.948;2023-07-13T05:54:14;101133.00;;;18.95;56.63
79411;BME280;69635;50.964;6.948;2023-07-13T05:56:40;101144.44;;;18.37;58.54
79411;BME280;69635;50.964;6.948;2023-07-13T05:59:05;101136.69;;;18.60;57.76
79411;BME280;69635;50.964;6.948;2023-07-13T06:01:31;101149.41;;;18.83;57.52
79411;BME280;69635;50.964;6.948;2023-07-13T06:03:57;101144.00;;;19.44;55.64
79411;BME280;69635;50.964;6.948;2023-07-13T06:06:22;101148.41;;;19.47;55.96
79411;BME280;69635;50.964;6.948;2023-07-13T06:08:48;101146.72;;;18.83;57.92
79411;BME280;69635;50.964;6.948;2023-07-13T06:11:17;101144.22;;;18.46;58.70
79411;BME280;69635;50.964;6.948;2023-07-13T06:13:43;101152.34;;;18.74;58.45
79411;BME280;69635;50.964;6.948;2023-07-13T06:16:09;101153.59;;;18.62;58.95
79411;BME280;69635;50.964;6.948;2023-07-13T06:18:36;101156.66;;;19.10;57.00
79411;BME280;69635;50.964;6.948;2023-07-13T06:21:09;101158.41;;;19.95;55.19
79411;BME280;69635;50.964;6.948;2023-07-13T06:23:35;101165.28;;;19.50;55.62
79411;BME280;69635;50.964;6.948;2023-07-13T06:26:01;101166.41;;;19.71;55.73
79411;BME280;69635;50.964;6.948;2023-07-13T06:28:32;101151.94;;;19.47;56.53
79411;BME280;69635;50.964;6.948;2023-07-13T06:30:59;101169.47;;;20.39;54.08
79411;BME280;69635;50.964;6.948;2023-07-13T06:33:24;101171.91;;;20.46;53.48
79411;BME280;69635;50.964;6.948;2023-07-13T06:35:50;101157.44;;;19.72;55.36
79411;BME280;69635;50.964;6.948;2023-07-13T06:38:15;101171.41;;;20.09;55.18
79411;BME280;69635;50.964;6.948;2023-07-13T06:40:42;101169.00;;;20.00;54.93
79411;BME280;69635;50.964;6.948;2023-07-13T06:43:07;101176.78;;;19.81;55.51
79411;BME280;69635;50.964;6.948;2023-07-13T06:45:41;101174.59;;;20.46;53.62
79411;BME280;69635;50.964;6.948;2023-07-13T06:48:06;101178.88;;;20.52;54.00
79411;BME280;69635;50.964;6.948;2023-07-13T06:50:33;101171.69;;;21.25;52.03
79411;BME280;69635;50.964;6.948;2023-07-13T06:52:59;101164.72;;;21.19;52.01
79411;BME280;69635;50.964;6.948;2023-07-13T06:55:25;101184.19;;;20.29;54.37
79411;BME280;69635;50.964;6.948;2023-07-13T06:57:50;101176.78;;;19.25;56.89
79411;BME280;69635;50.964;6.948;2023-07-13T07:00:16;101179.22;;;20.17;55.31
79411;BME280;69635;50.964;6.948;2023-07-13T07:02:41;101184.91;;;20.06;55.61
79411;BME280;69635;50.964;6.948;2023-07-13T07:05:07;101183.94;;;20.61;53.25
79411;BME280;69635;50.964;6.948;2023-07-13T07:07:32;101185.91;;;21.05;52.41
79411;BME280;69635;50.964;6.948;2023-07-13T07:10:00;101187.28;;;21.15;51.88
79411;BME280;69635;50.964;6.948;2023-07-13T07:12:25;101193.41;;;21.20;51.86
79411;BME280;69635;50.964;6.948;2023-07-13T07:14:51;101185.03;;;21.72;50.32
79411;BME280;69635;50.964;6.948;2023-07-13T07:17:16;101192.16;;;22.18;49.07
79411;BME280;69635;50.964;6.948;2023-07-13T07:19:42;101189.47;;;21.52;51.42
79411;BME280;69635;50.964;6.948;2023-07-13T07:22:07;101195.44;;;21.13;51.43
79411;BME280;69635;50.964;6.948;2023-07-13T07:24:33;101205.97;;;20.70;52.81
79411;BME280;69635;50.964;6.948;2023-07-13T07:26:58;101202.75;;;20.35;54.03
79411;BME280;69635;50.964;6.948;2023-07-13T07:29:24;101199.50;;;20.51;53.82
79411;BME280;69635;50.964;6.948;2023-07-13T07:31:52;101194.88;;;20.79;52.60
79411;BME280;69635;50.964;6.948;2023-07-13T07:34:17;101214.56;;;21.06;52.54
79411;BME280;69635;50.964;6.948;2023-07-13T07:36:43;101210.22;;;20.77;52.89
79411;BME280;69635;50.964;6.948;2023-07-13T07:39:08;101203.97;;;20.52;53.70
79411;BME280;69635;50.964;6.948;2023-07-13T07:41:33;101211.13;;;20.76;53.58
79411;BME280;69635;50.964;6.948;2023-07-13T07:43:59;101211.72;;;20.35;54.26
79411;BME280;69635;50.964;6.948;2023-07-13T07:46:24;101211.28;;;20.47;53.98
79411;BME280;69635;50.964;6.948;2023-07-13T07:48:50;101212.06;;;20.25;54.77
79411;BME280;69635;50.964;6.948;2023-07-13T07:51:15;101208.78;;;20.17;54.96
79411;BME280;69635;50.964;6.948;2023-07-13T07:53:41;101212.75;;;19.77;56.17
79411;BME280;69635;50.964;6.948;2023-07-13T07:56:07;101216.44;;;20.29;54.79
79411;BME280;69635;50.964;6.948;2023-07-13T07:58:32;101211.31;;;20.21;55.14
79411;BME280;69635;50.964;6.948;2023-07-13T08:01:07;101204.91;;;19.97;55.74
79411;BME280;69635;50.964;6.948;2023-07-13T08:03:33;101212.41;;;20.42;55.12
79411;BME280;69635;50.964;6.948;2023-07-13T08:05:59;101211.28;;;20.47;55.04
79411;BME280;69635;50.964;6.948;2023-07-13T08:08:25;101209.41;;;20.49;55.24
79411;BME280;69635;50.964;6.948;2023-07-13T08:10:50;101211.59;;;20.64;54.27
79411;BME280;69635;50.964;6.948;2023-07-13T08:13:15;101214.81;;;20.98;53.58
79411;BME280;69635;50.964;6.948;2023-07-13T08:15:41;101212.22;;;20.95;53.33
79411;BME280;69635;50.964;6.948;2023-07-13T08:18:09;101209.41;;;21.00;53.05
79411;BME280;69635;50.964;6.948;2023-07-13T08:20:39;101211.53;;;20.66;54.70
79411;BME280;69635;50.964;6.948;2023-07-13T08:23:04;101207.16;;;20.86;54.39
79411;BME280;69635;50.964;6.948;2023-07-13T08:25:30;101203.63;;;20.61;54.16
79411;BME280;69635;50.964;6.948;2023-07-13T08:27:55;101205.22;;;20.91;54.27
79411;BME280;69635;50.964;6.948;2023-07-13T08:30:21;101214.16;;;20.43;55.16
79411;BME280;69635;50.964;6.948;2023-07-13T08:32:46;101213.50;;;20.36;55.35
79411;BME280;69635;50.964;6.948;2023-07-13T08:35:12;101218.50;;;20.96;53.30
79411;BME280;69635;50.964;6.948;2023-07-13T08:37:39;101199.44;;;20.53;54.49
79411;BME280;69635;50.964;6.948;2023-07-13T08:40:05;101205.28;;;20.90;52.99
79411;BME280;69635;50.964;6.948;2023-07-13T08:42:39;101194.78;;;21.07;53.18
79411;BME280;69635;50.964;6.948;2023-07-13T08:45:30;101202.25;;;20.99;52.83
79411;BME280;69635;50.964;6.948;2023-07-13T08:48:22;101212.69;;;20.83;52.53
79411;BME280;69635;50.964;6.948;2023-07-13T08:53:59;101204.28;;;20.68;53.50
79411;BME280;69635;50.964;6.948;2023-07-13T08:56:28;101196.59;;;20.82;52.88
79411;BME280;69635;50.964;6.948;2023-07-13T08:59:31;101195.56;;;21.10;52.22
79411;BME280;69635;50.964;6.948;2023-07-13T09:04:50;101206.31;;;21.34;52.14
79411;BME280;69635;50.964;6.948;2023-07-13T09:10:16;101205.38;;;20.62;53.83
79411;BME280;69635;50.964;6.948;2023-07-13T09:15:40;101213.03;;;20.97;53.17
79411;BME280;69635;50.964;6.948;2023-07-13T09:20:46;101200.63;;;21.64;50.45
79411;BME280;69635;50.964;6.948;2023-07-13T09:23:20;101202.94;;;21.52;50.67
79411;BME280;69635;50.964;6.948;2023-07-13T09:25:48;101202.50;;;21.85;49.12
79411;BME280;69635;50.964;6.948;2023-07-13T09:28:26;101205.31;;;21.82;49.43
79411;BME280;69635;50.964;6.948;2023-07-13T09:33:31;101206.38;;;22.63;47.63
79411;BME280;69635;50.964;6.948;2023-07-13T09:35:58;101202.28;;;22.53;47.39
79411;BME280;69635;50.964;6.948;2023-07-13T09:38:25;101206.44;;;22.82;46.97
79411;BME280;69635;50.964;6.948;2023-07-13T09:43:29;101201.19;;;22.79;46.91
79411;BME280;69635;50.964;6.948;2023-07-13T09:45:55;101209.56;;;23.32;45.21
79411;BME280;69635;50.964;6.948;2023-07-13T09:48:21;101202.19;;;22.14;48.10
79411;BME280;69635;50.964;6.948;2023-07-13T09:50:47;101203.63;;;22.65;47.43
79411;BME280;69635;50.964;6.948;2023-07-13T09:53:17;101208.81;;;22.69;46.77
79411;BME280;69635;50.964;6.948;2023-07-13T09:55:45;101210.34;;;23.15;46.05
79411;BME280;69635;50.964;6.948;2023-07-13T09:58:26;101214.06;;;22.72;46.93
79411;BME280;69635;50.964;6.948;2023-07-13T10:01:17;101219.63;;;22.06;48.43
79411;BME280;69635;50.964;6.948;2023-07-13T10:03:56;101211.38;;;22.31;48.89
79411;BME280;69635;50.964;6.948;2023-07-13T10:06:22;101208.03;;;22.24;47.99
79411;BME280;69635;50.964;6.948;2023-07-13T10:08:49;101209.88;;;21.80;48.86
79411;BME280;69635;50.964;6.948;2023-07-13T10:14:16;101212.38;;;22.70;46.91
79411;BME280;69635;50.964;6.948;2023-07-13T10:16:44;101206.44;;;22.82;46.74
79411;BME280;69635;50.964;6.948;2023-07-13T10:19:25;101211.06;;;22.38;47.53
79411;BME280;69635;50.964;6.948;2023-07-13T10:21:57;101203.88;;;22.79;46.25
79411;BME280;69635;50.964;6.948;2023-07-13T10:24:27;101221.63;;;22.43;46.65
79411;BME280;69635;50.964;6.948;2023-07-13T10:32:36;101220.53;;;21.83;47.34
79411;BME280;69635;50.964;6.948;2023-07-13T10:35:03;101217.28;;;21.97;47.24
79411;BME280;69635;50.964;6.948;2023-07-13T10:37:49;101222.91;;;21.91;47.48
79411;BME280;69635;50.964;6.948;2023-07-13T10:40:21;101214.63;;;21.74;48.35
79411;BME280;69635;50.964;6.948;2023-07-13T10:43:18;101223.50;;;22.82;46.20
79411;BME280;69635;50.964;6.948;2023-07-13T10:45:46;101224.72;;;22.34;47.33
79411;BME280;69635;50.964;6.948;2023-07-13T10:48:17;101197.94;;;22.51;45.50
79411;BME280;69635;50.964;6.948;2023-07-13T10:50:45;101219.44;;;23.12;43.93
79411;BME280;69635;50.964;6.948;2023-07-13T10:53:19;101212.78;;;22.61;44.88
79411;BME280;69635;50.964;6.948;2023-07-13T10:58:22;101224.19;;;22.87;44.39
79411;BME280;69635;50.964;6.948;2023-07-13T11:03:20;101214.09;;;22.51;45.05
79411;BME280;69635;50.964;6.948;2023-07-13T11:14:05;101174.63;;;21.63;47.46
79411;BME280;69635;50.964;6.948;2023-07-13T11:16:49;101194.97;;;21.49;47.93
79411;BME280;69635;50.964;6.948;2023-07-13T11:29:48;101218.41;;;22.13;47.64
79411;BME280;69635;50.964;6.948;2023-07-13T11:32:33;101194.81;;;22.40;47.11
79411;BME280;69635;50.964;6.948;2023-07-13T11:34:58;101219.19;;;22.58;46.24
79411;BME280;69635;50.964;6.948;2023-07-13T11:37:24;101185.41;;;22.28;46.00
79411;BME280;69635;50.964;6.948;2023-07-13T11:39:51;101232.50;;;22.41;46.33
79411;BME280;69635;50.964;6.948;2023-07-13T11:42:18;101216.56;;;22.13;46.74
79411;BME280;69635;50.964;6.948;2023-07-13T11:44:48;101181.81;;;21.86;46.83
79411;BME280;69635;50.964;6.948;2023-07-13T11:47:20;101196.56;;;21.76;47.28
79411;BME280;69635;50.964;6.948;2023-07-13T11:49:52;101201.66;;;21.83;46.93
79411;BME280;69635;50.964;6.948;2023-07-13T11:52:38;101229.63;;;22.02;46.43
79411;BME280;69635;50.964;6.948;2023-07-13T11:55:13;101183.84;;;22.23;46.01
79411;BME280;69635;50.964;6.948;2023-07-13T11:57:57;101214.81;;;22.34;44.99
79411;BME280;69635;50.964;6.948;2023-07-13T12:00:28;101232.09;;;22.50;43.74
79411;BME280;69635;50.964;6.948;2023-07-13T12:02:56;101211.72;;;22.43;44.29
79411;BME280;69635;50.964;6.948;2023-07-13T12:05:22;101180.91;;;22.70;43.79
79411;BME280;69635;50.964;6.948;2023-07-13T12:07:49;101212.44;;;22.88;43.52
79411;BME280;69635;50.964;6.948;2023-07-13T12:10:28;101225.91;;;23.29;43.40
79411;BME280;69635;50.964;6.948;2023-07-13T12:13:03;101217.19;;;23.22;43.33
79411;BME280;69635;50.964;6.948;2023-07-13T12:15:37;101211.19;;;23.15;43.55
79411;BME280;69635;50.964;6.948;2023-07-13T12:18:15;101197.34;;;22.84;44.04
79411;BME280;69635;50.964;6.948;2023-07-13T12:20:41;101196.53;;;23.02;43.98
79411;BME280;69635;50.964;6.948;2023-07-13T12:23:37;101195.78;;;22.99;43.45
79411;BME280;69635;50.964;6.948;2023-07-13T12:26:12;101198.50;;;22.79;43.07
79411;BME280;69635;50.964;6.948;2023-07-13T12:28:47;101219.22;;;23.17;41.79
79411;BME280;69635;50.964;6.948;2023-07-13T12:31:43;101183.56;;;22.90;41.82
79411;BME280;69635;50.964;6.948;2023-07-13T12:34:14;101184.44;;;22.91;42.16
79411;BME280;69635;50.964;6.948;2023-07-13T12:37:01;101226.44;;;22.56;42.99
79411;BME280;69635;50.964;6.948;2023-07-13T12:39:45;101197.91;;;23.11;42.72
79411;BME280;69635;50.964;6.948;2023-07-13T12:42:24;101222.97;;;23.72;40.69
79411;BME280;69635;50.964;6.948;2023-07-13T12:47:22;101174.81;;;23.80;40.20
79411;BME280;69635;50.964;6.948;2023-07-13T12:49:53;101198.09;;;24.01;40.62
79411;BME280;69635;50.964;6.948;2023-07-13T12:52:31;101172.81;;;23.83;41.33
79411;BME280;69635;50.964;6.948;2023-07-13T12:55:20;101163.75;;;24.03;40.42
79411;BME280;69635;50.964;6.948;2023-07-13T12:57:50;101209.06;;;24.34;40.76
79411;BME280;69635;50.964;6.948;2023-07-13T13:00:33;101220.97;;;24.82;39.79
79411;BME280;69635;50.964;6.948;2023-07-13T13:03:34;101141.81;;;24.60;37.46
79411;BME280;69635;50.964;6.948;2023-07-13T13:08:46;101220.31;;;24.94;38.41
79411;BME280;69635;50.964;6.948;2023-07-13T13:11:16;101137.38;;;24.42;39.40
79411;BME280;69635;50.964;6.948;2023-07-13T13:13:44;101157.44;;;24.55;38.16
79411;BME280;69635;50.964;6.948;2023-07-13T13:18:55;101205.13;;;24.05;38.80
79411;BME280;69635;50.964;6.948;2023-07-13T13:21:23;101188.41;;;23.60;38.52
79411;BME280;69635;50.964;6.948;2023-07-13T13:23:50;101200.78;;;24.19;37.69
79411;BME280;69635;50.964;6.948;2023-07-13T13:26:18;101159.09;;;24.41;37.92
79411;BME280;69635;50.964;6.948;2023-07-13T13:28:44;101199.84;;;24.89;37.18
79411;BME280;69635;50.964;6.948;2023-07-13T13:31:11;101200.34;;;24.97;35.14
79411;BME280;69635;50.964;6.948;2023-07-13T13:33:39;101200.66;;;25.23;34.99
79411;BME280;69635;50.964;6.948;2023-07-13T13:36:18;101187.69;;;25.46;34.92
79411;BME280;69635;50.964;6.948;2023-07-13T13:38:50;101189.00;;;25.39;36.21
79411;BME280;69635;50.964;6.948;2023-07-13T13:41:16;101170.13;;;25.37;35.55
79411;BME280;69635;50.964;6.948;2023-07-13T13:43:43;101183.97;;;25.64;35.28
79411;BME280;69635;50.964;6.948;2023-07-13T13:46:21;101191.56;;;25.73;35.40
79411;BME280;69635;50.964;6.948;2023-07-13T13:48:48;101188.44;;;25.65;35.90
79411;BME280;69635;50.964;6.948;2023-07-13T13:51:21;101195.25;;;25.72;35.83
79411;BME280;69635;50.964;6.948;2023-07-13T13:53:48;101181.66;;;25.41;35.73
79411;BME280;69635;50.964;6.948;2023-07-13T13:56:15;101172.38;;;23.92;38.63
79411;BME280;69635;50.964;6.948;2023-07-13T13:58:40;101184.38;;;24.05;38.38
79411;BME280;69635;50.964;6.948;2023-07-13T14:01:24;101124.44;;;23.79;38.50
79411;BME280;69635;50.964;6.948;2023-07-13T14:03:53;101126.72;;;24.05;37.42
79411;BME280;69635;50.964;6.948;2023-07-13T14:06:19;101190.84;;;25.05;36.06
79411;BME280;69635;50.964;6.948;2023-07-13T14:08:45;101176.00;;;25.45;35.25
79411;BME280;69635;50.964;6.948;2023-07-13T14:11:14;101169.44;;;25.80;35.04
79411;BME280;69635;50.964;6.948;2023-07-13T14:13:43;101194.53;;;25.53;35.17
79411;BME280;69635;50.964;6.948;2023-07-13T14:16:12;101198.91;;;24.90;36.30
79411;BME280;69635;50.964;6.948;2023-07-13T14:18:38;101167.22;;;24.58;36.95
79411;BME280;69635;50.964;6.948;2023-07-13T14:21:11;101192.56;;;25.06;36.24
79411;BME280;69635;50.964;6.948;2023-07-13T14:23:38;101202.16;;;25.29;36.66
79411;BME280;69635;50.964;6.948;2023-07-13T14:26:09;101192.16;;;25.14;36.34
79411;BME280;69635;50.964;6.948;2023-07-13T14:28:38;101186.16;;;25.24;35.86